Time;durP1;ratioP1;P1;durP2;ratioP2;P2;SDS_P1;SDS_P2;PMS_P1;PMS_P2;Temp;Humidity;BMP_temperature;BMP_pressure;BME280_temperature;BME280_humidity;BME280_pressure;Samples;Min_cycle;Max_cycle;Signal;HPM_P1;HPM_P2
2022/04/04 00:00:16;;;;;;;9.30;5.20;;;3.00;99.90;;;;;;5035616;28;20216;-89
2022/04/04 00:02:43;;;;;;;7.40;4.60;;;3.00;99.90;;;;;;5015315;28;20209;-89
2022/04/04 00:05:11;;;;;;;9.87;5.23;;;2.90;99.90;;;;;;5013417;28;20223;-89
2022/04/04 00:07:38;;;;;;;8.20;4.43;;;3.00;99.90;;;;;;5004449;28;20219;-87
2022/04/04 00:10:07;;;;;;;6.67;4.27;;;3.00;99.90;;;;;;5005939;28;20227;-87
2022/04/04 00:12:34;;;;;;;9.83;5.00;;;3.00;99.90;;;;;;5007468;28;20211;-90
2022/04/04 00:15:10;;;;;;;8.30;4.70;;;2.90;99.90;;;;;;5011001;28;20258;-89
2022/04/04 00:17:37;;;;;;;6.73;4.97;;;2.90;99.90;;;;;;5004776;28;20219;-88
2022/04/04 00:20:05;;;;;;;9.23;5.33;;;2.90;99.90;;;;;;5014475;28;20219;-89
2022/04/04 00:22:34;;;;;;;11.37;5.53;;;2.90;99.90;;;;;;5008216;28;20285;-90
2022/04/04 00:25:03;;;;;;;12.00;5.10;;;3.00;99.90;;;;;;5009038;28;20212;-91
2022/04/04 00:27:32;;;;;;;7.90;5.33;;;3.00;99.90;;;;;;5007354;28;20203;-90
2022/04/04 00:30:00;;;;;;;7.77;4.70;;;3.00;99.90;;;;;;5022605;28;20202;-90
2022/04/04 00:32:27;;;;;;;7.50;4.80;;;3.00;99.90;;;;;;5009608;28;20210;-90
2022/04/04 00:34:56;;;;;;;7.00;4.57;;;2.90;99.90;;;;;;5010453;28;20619;-90
2022/04/04 00:37:23;;;;;;;11.13;5.63;;;3.00;99.90;;;;;;5015470;28;20293;-91
2022/04/04 00:39:49;;;;;;;9.30;5.00;;;3.00;99.90;;;;;;5003590;28;20685;-90
2022/04/04 00:42:17;;;;;;;14.77;5.53;;;3.00;99.90;;;;;;5007401;28;20238;-91
2022/04/04 00:44:45;;;;;;;10.33;5.43;;;3.00;99.90;;;;;;5015901;28;20223;-92
2022/04/04 00:47:13;;;;;;;12.47;5.90;;;3.00;99.90;;;;;;5016133;28;20234;-90
2022/04/04 00:49:40;;;;;;;10.20;5.23;;;3.00;99.90;;;;;;5011906;28;20239;-92
2022/04/04 00:52:07;;;;;;;9.80;5.80;;;3.10;99.90;;;;;;5025822;28;20243;-90
2022/04/04 00:54:38;;;;;;;7.87;6.10;;;3.00;99.90;;;;;;5022422;28;20211;-91
2022/04/04 00:57:10;;;;;;;9.57;6.00;;;3.00;99.90;;;;;;5018057;28;20215;-90
2022/04/04 00:59:42;;;;;;;8.40;6.47;;;3.20;99.90;;;;;;5007765;28;20223;-89
2022/04/04 01:02:12;;;;;;;12.97;6.50;;;3.00;99.90;;;;;;5019246;28;20242;-89
2022/04/04 01:04:42;;;;;;;9.77;6.00;;;3.00;99.90;;;;;;5012868;28;20211;-91
2022/04/04 01:07:09;;;;;;;10.97;6.50;;;3.00;99.90;;;;;;5003855;28;20231;-91
2022/04/04 01:09:39;;;;;;;14.50;6.70;;;3.00;99.90;;;;;;5018025;28;20214;-90
2022/04/04 01:12:11;;;;;;;10.27;7.17;;;3.00;99.90;;;;;;5014770;28;20237;-91
2022/04/04 01:14:49;;;;;;;16.83;7.90;;;3.00;99.90;;;;;;5013614;28;20452;-91
2022/04/04 01:17:45;;;;;;;14.20;7.97;;;3.00;99.90;;;;;;4985452;28;20207;-90
2022/04/04 01:20:16;;;;;;;12.37;7.80;;;3.00;99.90;;;;;;5018961;28;20214;-91
2022/04/04 01:22:52;;;;;;;14.10;8.63;;;3.00;99.90;;;;;;5026533;28;20230;-92
2022/04/04 01:25:27;;;;;;;15.37;8.30;;;3.00;99.90;;;;;;5026526;28;20233;-91
2022/04/04 01:28:00;;;;;;;16.23;8.87;;;3.00;99.90;;;;;;5006065;28;20203;-88
2022/04/04 01:30:31;;;;;;;17.07;8.23;;;3.00;99.90;;;;;;5018957;28;20202;-90
2022/04/04 01:33:00;;;;;;;15.73;9.20;;;3.00;99.90;;;;;;5024706;28;20207;-88
2022/04/04 01:35:27;;;;;;;14.10;8.27;;;3.00;99.90;;;;;;5019627;28;20195;-90
2022/04/04 01:38:00;;;;;;;19.37;9.70;;;3.00;99.90;;;;;;5018968;28;20250;-89
2022/04/04 01:40:33;;;;;;;16.70;7.93;;;3.10;99.90;;;;;;5017553;28;20903;-89
2022/04/04 01:43:02;;;;;;;15.53;9.37;;;3.20;99.90;;;;;;5014883;28;20716;-90
2022/04/04 01:48:16;;;;;;;18.90;9.30;;;3.10;99.90;;;;;;5015591;28;20238;-89
2022/04/04 01:50:43;;;;;;;16.10;9.13;;;3.20;99.90;;;;;;5025843;28;20222;-90
2022/04/04 01:53:26;;;;;;;13.83;9.40;;;3.20;99.90;;;;;;5013547;28;20300;-91
2022/04/04 01:55:57;;;;;;;11.40;8.23;;;3.20;99.90;;;;;;5024490;28;20670;-89
2022/04/04 01:58:27;;;;;;;16.27;8.60;;;3.30;99.90;;;;;;5026152;28;20964;-90
2022/04/04 02:00:56;;;;;;;18.83;8.37;;;3.30;99.90;;;;;;5018502;28;20243;-89
2022/04/04 02:03:25;;;;;;;15.57;8.90;;;3.40;99.90;;;;;;5023818;28;20531;-89
2022/04/04 02:05:53;;;;;;;13.97;9.03;;;3.40;99.90;;;;;;5018450;28;20203;-90
2022/04/04 02:08:35;;;;;;;15.97;9.83;;;3.40;99.90;;;;;;5020627;28;20223;-89
2022/04/04 02:11:04;;;;;;;16.00;9.77;;;3.50;99.90;;;;;;5014711;28;20208;-93
2022/04/04 02:13:32;;;;;;;12.10;8.20;;;3.50;99.90;;;;;;5010574;28;20217;-89
2022/04/04 02:16:01;;;;;;;15.53;8.40;;;3.60;99.90;;;;;;5014939;28;20235;-87
2022/04/04 02:18:30;;;;;;;16.87;8.70;;;3.60;99.90;;;;;;5008668;28;20663;-89
2022/04/04 02:21:09;;;;;;;14.50;9.40;;;3.60;99.90;;;;;;5020056;28;20267;-90
2022/04/04 02:23:38;;;;;;;16.67;8.97;;;3.70;99.90;;;;;;5024586;28;20298;-89
2022/04/04 02:26:05;;;;;;;14.83;8.67;;;3.70;99.90;;;;;;4997105;28;20255;-90
2022/04/04 02:28:32;;;;;;;17.30;9.93;;;3.80;99.90;;;;;;5011076;28;20291;-90
2022/04/04 02:31:02;;;;;;;12.90;8.43;;;3.70;99.90;;;;;;5019759;28;20244;-91
2022/04/04 02:33:29;;;;;;;15.17;9.30;;;3.80;99.90;;;;;;5015849;28;20203;-90
2022/04/04 02:35:57;;;;;;;17.20;9.13;;;3.80;99.90;;;;;;5024727;28;20204;-90
2022/04/04 02:38:26;;;;;;;17.80;9.87;;;3.80;99.90;;;;;;5013634;28;20644;-90
2022/04/04 02:40:55;;;;;;;18.00;9.50;;;3.90;99.90;;;;;;5017113;28;20212;-90
2022/04/04 02:43:28;;;;;;;15.67;9.60;;;3.90;99.90;;;;;;5026632;28;20231;-89
2022/04/04 02:45:56;;;;;;;20.50;9.57;;;3.90;99.90;;;;;;5025736;28;20221;-91
2022/04/04 02:48:28;;;;;;;15.73;10.00;;;3.90;99.90;;;;;;5024830;28;20214;-91
2022/04/04 02:50:55;;;;;;;15.83;9.63;;;3.90;99.90;;;;;;5027846;28;20195;-92
2022/04/04 02:53:23;;;;;;;15.33;8.80;;;3.90;99.90;;;;;;5017587;28;20247;-90
2022/04/04 02:58:39;;;;;;;14.00;8.87;;;4.00;99.90;;;;;;5024519;28;20213;-90
2022/04/04 03:01:08;;;;;;;16.53;9.17;;;4.00;99.90;;;;;;5023430;28;20216;-90
2022/04/04 03:03:46;;;;;;;15.50;8.63;;;4.00;99.90;;;;;;5016875;28;20242;-90
2022/04/04 03:06:16;;;;;;;15.77;9.00;;;4.10;99.90;;;;;;5019476;28;20206;-90
2022/04/04 03:08:44;;;;;;;14.33;10.10;;;4.10;99.90;;;;;;5010166;28;20208;-89
2022/04/04 03:11:25;;;;;;;14.83;9.50;;;4.10;99.90;;;;;;5013349;28;20213;-90
2022/04/04 03:13:53;;;;;;;16.60;10.27;;;4.10;99.90;;;;;;5016167;28;20238;-90
2022/04/04 03:16:21;;;;;;;14.03;9.17;;;4.10;99.90;;;;;;5008409;28;20211;-91
2022/04/04 03:18:49;;;;;;;15.07;9.93;;;4.10;99.90;;;;;;5016162;28;20632;-90
2022/04/04 03:21:29;;;;;;;15.43;9.47;;;4.20;99.90;;;;;;5031978;28;20227;-90
2022/04/04 03:23:57;;;;;;;16.73;9.63;;;4.10;99.90;;;;;;5014463;28;20208;-89
2022/04/04 03:26:25;;;;;;;14.63;9.40;;;4.20;99.90;;;;;;5017614;28;20238;-90
2022/04/04 03:28:54;;;;;;;13.00;9.50;;;4.20;99.90;;;;;;5021084;28;20258;-90
2022/04/04 03:31:22;;;;;;;15.23;9.77;;;4.40;99.90;;;;;;5021591;28;20202;-89
2022/04/04 03:33:52;;;;;;;14.40;9.60;;;4.20;99.90;;;;;;5020499;28;20205;-90
2022/04/04 03:36:21;;;;;;;13.23;9.37;;;4.20;99.90;;;;;;5017297;28;20217;-89
2022/04/04 03:38:48;;;;;;;16.00;9.37;;;4.20;99.90;;;;;;5003001;28;20319;-87
2022/04/04 03:41:16;;;;;;;15.50;9.40;;;4.20;99.90;;;;;;5019377;28;20255;-93
2022/04/04 03:43:43;;;;;;;15.30;10.70;;;4.20;99.90;;;;;;5018358;28;20319;-92
2022/04/04 03:46:15;;;;;;;13.50;9.27;;;4.20;99.90;;;;;;5021538;28;20209;-90
2022/04/04 03:48:42;;;;;;;15.33;8.93;;;4.30;99.90;;;;;;5010595;28;20481;-91
2022/04/04 03:51:12;;;;;;;15.57;9.43;;;4.30;99.90;;;;;;5017789;28;20201;-91
2022/04/04 03:53:39;;;;;;;14.37;8.63;;;4.30;99.90;;;;;;5016323;28;20221;-90
2022/04/04 03:56:10;;;;;;;14.93;8.67;;;4.30;99.90;;;;;;5033178;28;20204;-91
2022/04/04 03:58:40;;;;;;;14.97;8.33;;;4.30;99.90;;;;;;5018407;28;20205;-89
2022/04/04 04:01:09;;;;;;;13.17;8.57;;;4.30;99.90;;;;;;5031452;28;20213;-89
2022/04/04 04:03:36;;;;;;;11.47;8.70;;;4.30;99.90;;;;;;5013906;28;20228;-91
2022/04/04 04:06:14;;;;;;;12.80;8.30;;;4.30;99.90;;;;;;5026589;28;20703;-90
2022/04/04 04:08:43;;;;;;;12.17;8.37;;;4.40;99.90;;;;;;5019058;28;20197;-92
2022/04/04 04:11:19;;;;;;;13.97;9.30;;;4.30;99.90;;;;;;5024601;28;20210;-91
2022/04/04 04:13:47;;;;;;;11.73;8.23;;;4.40;99.90;;;;;;5022304;28;20233;-90
2022/04/04 04:16:15;;;;;;;13.87;8.77;;;4.40;99.90;;;;;;5009976;28;20204;-91
2022/04/04 04:18:42;;;;;;;13.30;8.93;;;4.40;99.90;;;;;;5026458;28;20202;-90
2022/04/04 04:21:11;;;;;;;13.23;8.57;;;4.50;99.90;;;;;;5021826;28;20209;-89
2022/04/04 04:23:45;;;;;;;12.43;8.23;;;4.50;99.90;;;;;;5007544;28;20213;-92
2022/04/04 04:26:19;;;;;;;16.70;8.67;;;4.50;99.90;;;;;;5031055;28;20202;-91
2022/04/04 04:28:47;;;;;;;11.13;8.50;;;4.60;99.90;;;;;;5027103;28;20217;-89
2022/04/04 04:31:17;;;;;;;11.67;8.77;;;4.60;99.90;;;;;;5026885;28;20212;-90
2022/04/04 04:33:46;;;;;;;14.13;8.93;;;4.60;99.90;;;;;;5006822;28;20297;-90
2022/04/04 04:36:16;;;;;;;15.30;8.90;;;4.70;99.90;;;;;;5017511;28;20208;-91
2022/04/04 04:38:43;;;;;;;11.73;8.43;;;4.70;99.90;;;;;;5004895;28;20222;-91
2022/04/04 04:41:12;;;;;;;17.03;9.20;;;4.70;99.90;;;;;;5020160;28;20317;-91
2022/04/04 04:43:43;;;;;;;13.90;9.43;;;4.70;99.90;;;;;;5016007;28;20236;-91
2022/04/04 04:46:10;;;;;;;11.37;9.17;;;4.70;99.90;;;;;;5008474;28;20302;-93
2022/04/04 04:48:40;;;;;;;16.53;9.13;;;4.80;99.90;;;;;;5022449;28;20238;-90
2022/04/04 04:51:07;;;;;;;11.43;8.57;;;4.80;99.90;;;;;;5015167;28;20206;-92
2022/04/04 04:53:35;;;;;;;11.80;8.50;;;4.80;99.90;;;;;;5005798;28;20213;-90
2022/04/04 04:56:08;;;;;;;13.33;9.47;;;4.70;99.90;;;;;;5010331;28;20201;-90
2022/04/04 04:58:38;;;;;;;15.37;9.90;;;5.00;99.90;;;;;;5023726;28;20234;-92
2022/04/04 05:01:05;;;;;;;14.07;9.10;;;4.90;99.90;;;;;;5023322;28;20224;-90
2022/04/04 05:03:38;;;;;;;12.87;9.40;;;4.90;99.90;;;;;;5032209;28;20230;-89
2022/04/04 05:06:06;;;;;;;16.37;9.60;;;5.00;99.90;;;;;;5019311;28;20257;-90
2022/04/04 05:08:33;;;;;;;12.83;9.10;;;5.00;99.90;;;;;;5018434;28;20284;-90
2022/04/04 05:11:00;;;;;;;15.10;9.30;;;5.00;99.90;;;;;;5035368;28;20210;-91
2022/04/04 05:13:27;;;;;;;17.70;9.70;;;5.00;99.90;;;;;;5016219;28;20216;-92
2022/04/04 05:15:58;;;;;;;10.57;8.27;;;5.00;99.90;;;;;;5012376;28;20322;-92
2022/04/04 05:18:28;;;;;;;16.43;9.17;;;5.00;99.90;;;;;;5015388;28;20205;-91
2022/04/04 05:20:55;;;;;;;18.43;9.47;;;5.10;99.90;;;;;;5013798;28;20202;-92
2022/04/04 05:23:22;;;;;;;12.40;8.67;;;5.10;99.90;;;;;;5002046;28;20244;-91
2022/04/04 05:25:50;;;;;;;13.17;9.17;;;5.10;99.90;;;;;;5010741;28;20208;-93
2022/04/04 05:28:16;;;;;;;14.50;8.80;;;5.20;99.90;;;;;;5009732;28;20294;-90
2022/04/04 05:30:45;;;;;;;13.93;8.80;;;5.20;99.90;;;;;;5012714;28;20213;-89
2022/04/04 05:33:14;;;;;;;11.57;8.83;;;5.20;99.90;;;;;;5020909;28;20223;-92
2022/04/04 05:35:41;;;;;;;12.27;7.83;;;5.30;99.90;;;;;;5006586;28;20221;-92
2022/04/04 05:38:10;;;;;;;11.60;7.70;;;5.20;99.90;;;;;;5011347;28;20249;-93
2022/04/04 05:40:36;;;;;;;12.57;7.77;;;5.30;99.90;;;;;;5004406;28;20725;-92
2022/04/04 05:43:04;;;;;;;11.40;8.50;;;5.40;99.90;;;;;;5004635;28;20226;-92
2022/04/04 05:45:35;;;;;;;13.77;8.50;;;5.40;99.90;;;;;;5000651;28;20221;-92
2022/04/04 05:48:07;;;;;;;14.80;8.37;;;5.50;99.90;;;;;;5000828;28;20264;-90
2022/04/04 05:50:34;;;;;;;11.93;7.23;;;5.50;99.90;;;;;;5003023;28;20202;-84
2022/04/04 05:53:03;;;;;;;10.30;7.73;;;5.50;99.90;;;;;;5009133;28;21152;-87
2022/04/04 05:55:31;;;;;;;11.70;7.73;;;5.50;99.90;;;;;;5010357;28;20209;-90
2022/04/04 05:57:58;;;;;;;11.90;7.57;;;5.70;99.90;;;;;;5007065;28;20217;-89
2022/04/04 06:00:25;;;;;;;12.83;8.23;;;5.50;99.90;;;;;;5012684;28;20306;-91
2022/04/04 06:02:53;;;;;;;12.37;7.40;;;5.60;99.90;;;;;;5018461;28;21769;-88
2022/04/04 06:05:26;;;;;;;11.77;7.17;;;5.70;99.90;;;;;;5023978;28;20239;-90
2022/04/04 06:07:56;;;;;;;13.47;7.80;;;5.70;99.90;;;;;;5031254;28;20215;-89
2022/04/04 06:10:25;;;;;;;10.37;6.67;;;5.70;99.90;;;;;;5009080;28;20211;-87
2022/04/04 06:13:15;;;;;;;13.00;7.83;;;5.80;99.90;;;;;;5023325;28;20214;-91
2022/04/04 06:15:50;;;;;;;10.43;7.57;;;5.80;99.90;;;;;;5023811;28;20234;-88
2022/04/04 06:18:19;;;;;;;13.13;7.43;;;5.80;99.90;;;;;;5011972;28;20279;-93
2022/04/04 06:20:46;;;;;;;10.90;7.33;;;5.90;99.90;;;;;;5011521;28;20209;-90
2022/04/04 06:23:14;;;;;;;15.47;7.60;;;6.00;99.90;;;;;;5015802;28;20223;-90
2022/04/04 06:25:42;;;;;;;11.30;7.40;;;6.00;99.90;;;;;;5006501;28;20654;-93
2022/04/04 06:28:10;;;;;;;12.30;8.57;;;6.00;99.90;;;;;;5016389;28;20219;-90
2022/04/04 06:30:37;;;;;;;11.97;7.60;;;6.10;99.90;;;;;;5012046;28;20272;-87
2022/04/04 06:33:07;;;;;;;12.23;8.03;;;6.10;99.90;;;;;;5013956;28;20229;-89
2022/04/04 06:35:35;;;;;;;20.27;8.40;;;6.10;99.90;;;;;;5005265;28;20627;-89
2022/04/04 06:38:02;;;;;;;11.13;7.80;;;6.20;99.90;;;;;;5011299;28;20227;-88
2022/04/04 06:40:32;;;;;;;10.40;8.13;;;6.20;99.90;;;;;;5007457;28;20669;-87
2022/04/04 06:42:59;;;;;;;14.07;7.47;;;6.20;99.90;;;;;;5008261;28;20334;-88
2022/04/04 06:45:27;;;;;;;11.87;7.90;;;6.30;99.90;;;;;;5013277;28;20211;-88
2022/04/04 06:47:55;;;;;;;11.57;7.93;;;6.40;99.90;;;;;;5004633;28;20274;-88
2022/04/04 06:50:23;;;;;;;14.33;7.90;;;6.40;99.90;;;;;;5013965;28;20647;-86
2022/04/04 06:52:52;;;;;;;11.57;7.70;;;6.40;99.90;;;;;;5013199;28;20651;-86
2022/04/04 06:55:39;;;;;;;12.07;7.60;;;6.40;99.90;;;;;;5027085;28;20217;-85
2022/04/04 06:58:06;;;;;;;11.80;7.87;;;6.50;99.90;;;;;;5000581;28;20246;-87
2022/04/04 07:00:34;;;;;;;15.53;8.07;;;6.50;99.90;;;;;;5003912;28;20376;-88
2022/04/04 07:03:01;;;;;;;13.97;8.30;;;6.60;99.90;;;;;;5011904;28;20268;-87
2022/04/04 07:05:29;;;;;;;12.33;7.37;;;6.60;99.90;;;;;;5009972;28;20590;-88
2022/04/04 07:07:56;;;;;;;14.10;8.00;;;6.70;99.90;;;;;;5015024;28;20231;-89
2022/04/04 07:10:22;;;;;;;12.43;7.93;;;6.70;99.90;;;;;;5003771;28;20215;-89
2022/04/04 07:12:51;;;;;;;12.47;7.77;;;6.70;99.90;;;;;;5003084;28;20205;-89
2022/04/04 07:15:18;;;;;;;10.53;7.73;;;6.70;99.90;;;;;;5001136;28;20282;-89
2022/04/04 07:17:45;;;;;;;15.33;7.67;;;6.70;99.90;;;;;;5018355;28;20666;-89
2022/04/04 07:20:13;;;;;;;13.47;8.20;;;6.70;99.90;;;;;;5006567;28;20688;-87
2022/04/04 07:22:41;;;;;;;13.57;8.77;;;6.80;99.90;;;;;;5006495;28;20251;-87
2022/04/04 07:25:10;;;;;;;14.37;8.67;;;6.80;99.90;;;;;;5011451;28;20231;-88
2022/04/04 07:27:41;;;;;;;15.80;8.47;;;6.80;99.90;;;;;;5008232;28;20205;-89
2022/04/04 07:30:12;;;;;;;14.87;9.03;;;6.80;99.90;;;;;;5015059;28;20215;-89
2022/04/04 07:32:39;;;;;;;16.20;9.50;;;6.70;99.90;;;;;;5006250;28;20656;-90
2022/04/04 07:35:09;;;;;;;16.17;8.73;;;6.70;99.90;;;;;;5013685;28;20211;-88
2022/04/04 07:37:47;;;;;;;13.43;8.97;;;6.60;99.90;;;;;;5001083;28;20231;-89
2022/04/04 07:40:17;;;;;;;13.93;9.30;;;6.60;99.90;;;;;;5011657;28;20271;-88
2022/04/04 07:42:46;;;;;;;15.70;9.47;;;6.70;99.90;;;;;;5009890;28;20244;-87
2022/04/04 07:45:15;;;;;;;14.87;9.00;;;6.70;99.90;;;;;;5015240;28;20211;-89
2022/04/04 07:47:44;;;;;;;13.23;8.57;;;6.70;99.90;;;;;;5008395;28;20215;-88
2022/04/04 07:50:14;;;;;;;13.13;8.90;;;6.60;99.90;;;;;;5004401;28;20243;-90
2022/04/04 07:52:41;;;;;;;13.53;9.33;;;6.60;99.90;;;;;;5024312;28;20290;-90
2022/04/04 07:55:09;;;;;;;17.63;9.73;;;6.60;99.90;;;;;;5018647;28;20283;-91
2022/04/04 07:57:36;;;;;;;13.53;9.63;;;6.50;99.90;;;;;;5014936;28;20207;-89
2022/04/04 08:00:05;;;;;;;12.57;8.70;;;6.50;99.90;;;;;;5016497;28;20244;-88
2022/04/04 08:02:32;;;;;;;16.60;9.33;;;6.50;99.90;;;;;;5031400;28;20211;-87
2022/04/04 08:05:00;;;;;;;14.37;9.23;;;6.50;99.90;;;;;;5006032;28;20222;-89
2022/04/04 08:07:27;;;;;;;15.27;9.23;;;6.50;99.90;;;;;;5004383;28;20224;-88
2022/04/04 08:09:54;;;;;;;14.80;9.37;;;6.50;99.90;;;;;;5001478;28;20199;-90
2022/04/04 08:12:28;;;;;;;11.97;8.80;;;6.50;99.90;;;;;;5002639;28;20267;-89
2022/04/04 08:14:56;;;;;;;14.83;10.00;;;6.50;99.90;;;;;;5000479;28;21060;-89
2022/04/04 08:17:23;;;;;;;12.13;9.20;;;6.50;99.90;;;;;;5003912;28;20204;-88
2022/04/04 08:19:50;;;;;;;13.80;9.10;;;6.50;99.90;;;;;;5006898;28;20296;-90
2022/04/04 08:22:17;;;;;;;15.43;9.83;;;6.60;99.90;;;;;;5004642;28;20254;-90
2022/04/04 08:24:45;;;;;;;12.73;9.67;;;6.50;99.90;;;;;;5011085;28;20303;-89
2022/04/04 08:27:13;;;;;;;16.07;10.20;;;6.60;99.90;;;;;;5000747;28;20222;-91
2022/04/04 08:29:40;;;;;;;16.17;9.97;;;6.70;99.90;;;;;;5007954;28;20222;-89
2022/04/04 08:32:07;;;;;;;14.87;10.17;;;6.80;99.90;;;;;;5011434;28;20204;-87
2022/04/04 08:34:34;;;;;;;17.53;9.77;;;6.80;99.90;;;;;;5010351;28;20235;-89
2022/04/04 08:37:01;;;;;;;14.80;9.33;;;6.80;99.90;;;;;;5001847;28;20236;-89
2022/04/04 08:39:30;;;;;;;18.77;10.77;;;6.80;99.90;;;;;;5004382;28;20204;-90
2022/04/04 08:41:57;;;;;;;16.67;10.07;;;6.90;99.90;;;;;;5009717;28;20223;-89
2022/04/04 08:44:24;;;;;;;13.23;9.73;;;6.90;99.90;;;;;;5006502;28;20234;-90
2022/04/04 08:46:52;;;;;;;15.17;9.97;;;6.90;99.90;;;;;;5006400;28;20218;-90
2022/04/04 08:49:20;;;;;;;17.57;11.97;;;7.00;99.90;;;;;;5004627;28;20257;-92
2022/04/04 08:51:48;;;;;;;13.43;9.70;;;7.00;99.90;;;;;;5011240;28;20219;-87
2022/04/04 08:54:16;;;;;;;15.80;9.80;;;6.90;99.90;;;;;;4999921;28;20230;-93
2022/04/04 08:56:43;;;;;;;20.77;10.53;;;7.00;99.90;;;;;;5013692;28;20224;-90
2022/04/04 08:59:21;;;;;;;14.33;8.93;;;7.00;99.90;;;;;;5018373;28;20228;-87
2022/04/04 09:01:48;;;;;;;12.77;9.23;;;6.90;99.90;;;;;;5012029;28;20213;-92
2022/04/04 09:04:16;;;;;;;13.90;9.37;;;6.90;99.90;;;;;;5011085;28;20322;-92
2022/04/04 09:06:54;;;;;;;15.90;10.20;;;6.90;99.90;;;;;;5014485;28;20248;-92
2022/04/04 09:09:41;;;;;;;14.77;10.73;;;6.80;99.90;;;;;;5026462;28;20268;-91
2022/04/04 09:12:22;;;;;;;15.57;10.13;;;6.80;99.90;;;;;;5009358;28;20618;-93
2022/04/04 09:14:52;;;;;;;16.67;10.67;;;6.70;99.90;;;;;;5003446;28;20235;-90
2022/04/04 09:17:32;;;;;;;14.00;10.50;;;6.50;99.90;;;;;;5012070;28;20214;-85
2022/04/04 09:20:08;;;;;;;13.30;10.63;;;6.50;99.90;;;;;;5013522;28;20205;-89
2022/04/04 09:22:51;;;;;;;16.10;11.27;;;6.40;99.90;;;;;;5010588;28;20221;-88
2022/04/04 09:25:30;;;;;;;16.90;11.50;;;6.40;99.90;;;;;;5012687;28;20242;-89
2022/04/04 09:28:16;;;;;;;14.77;10.90;;;6.50;99.90;;;;;;5012398;28;20234;-89
2022/04/04 09:30:45;;;;;;;14.20;9.97;;;6.50;99.90;;;;;;5014731;28;20209;-87
2022/04/04 09:33:13;;;;;;;18.80;9.27;;;6.40;99.90;;;;;;5006057;28;20290;-90
2022/04/04 09:35:46;;;;;;;16.37;9.27;;;6.30;99.90;;;;;;5000617;28;20257;-89
2022/04/04 09:38:14;;;;;;;15.03;9.57;;;6.40;99.90;;;;;;5006761;28;20218;-88
2022/04/04 09:40:41;;;;;;;13.83;9.43;;;6.20;99.90;;;;;;5011399;28;20221;-88
2022/04/04 09:43:08;;;;;;;14.17;9.73;;;6.20;99.90;;;;;;5010800;28;20703;-85
2022/04/04 09:45:35;;;;;;;13.27;10.27;;;6.30;99.90;;;;;;5009484;28;20245;-88
2022/04/04 09:48:09;;;;;;;15.37;10.47;;;6.20;99.90;;;;;;5009900;28;20291;-88
2022/04/04 09:50:45;;;;;;;11.43;8.47;;;6.30;99.90;;;;;;5013317;28;20206;-88
2022/04/04 09:53:21;;;;;;;12.47;9.13;;;6.30;99.90;;;;;;5008428;28;20254;-88
2022/04/04 09:55:52;;;;;;;8.97;7.23;;;6.30;99.90;;;;;;5011604;28;20222;-87
2022/04/04 09:58:21;;;;;;;9.27;7.23;;;6.30;99.90;;;;;;5010319;28;20684;-88
2022/04/04 10:00:49;;;;;;;9.60;7.73;;;6.30;99.90;;;;;;4998644;28;20679;-89
2022/04/04 10:03:18;;;;;;;9.97;8.20;;;6.30;99.90;;;;;;5006993;28;20403;-88
2022/04/04 10:06:06;;;;;;;11.20;7.73;;;6.40;99.90;;;;;;4999451;28;20208;-87
2022/04/04 10:08:35;;;;;;;10.90;7.67;;;6.40;99.90;;;;;;5006646;28;20590;-91
2022/04/04 10:11:23;;;;;;;10.13;8.10;;;6.40;99.90;;;;;;5007861;28;20195;-88
2022/04/04 10:13:57;;;;;;;12.03;7.43;;;6.40;99.90;;;;;;5000715;28;20214;-89
2022/04/04 10:16:25;;;;;;;12.30;7.53;;;6.40;99.90;;;;;;5007203;28;20207;-89
2022/04/04 10:18:54;;;;;;;9.80;7.77;;;6.40;99.90;;;;;;5009166;28;20196;-83
2022/04/04 10:21:22;;;;;;;12.27;6.77;;;6.50;99.90;;;;;;5012093;28;20200;-84
2022/04/04 10:23:52;;;;;;;10.97;7.43;;;6.50;99.90;;;;;;5023185;28;20299;-88
2022/04/04 10:26:25;;;;;;;9.63;7.40;;;6.50;99.90;;;;;;5015647;28;20202;-88
2022/04/04 10:29:16;;;;;;;10.67;7.80;;;6.50;99.90;;;;;;5005144;28;20227;-89
2022/04/04 10:31:49;;;;;;;10.40;7.67;;;6.50;99.90;;;;;;5014096;28;20566;-88
2022/04/04 10:34:24;;;;;;;8.17;6.73;;;6.50;99.90;;;;;;5009409;28;20711;-87
2022/04/04 10:37:08;;;;;;;10.63;6.67;;;6.70;99.90;;;;;;5002841;28;20257;-86
2022/04/04 10:39:44;;;;;;;7.43;5.60;;;6.50;99.90;;;;;;5009867;28;20199;-87
2022/04/04 10:42:31;;;;;;;9.03;6.33;;;6.60;99.90;;;;;;5004441;28;20241;-90
2022/04/04 10:45:10;;;;;;;8.47;6.57;;;6.70;99.90;;;;;;5001941;28;20700;-88
2022/04/04 10:47:43;;;;;;;6.77;5.73;;;6.80;99.90;;;;;;5002271;28;20282;-87
2022/04/04 10:50:31;;;;;;;8.27;6.53;;;6.80;99.90;;;;;;5004218;28;20274;-89
2022/04/04 10:52:59;;;;;;;8.40;7.23;;;6.80;99.90;;;;;;5009197;28;20223;-89
2022/04/04 10:55:43;;;;;;;9.90;6.33;;;6.90;99.90;;;;;;5001284;28;20634;-85
2022/04/04 10:58:15;;;;;;;11.47;6.80;;;6.90;99.90;;;;;;5010471;28;20204;-88
2022/04/04 11:00:54;;;;;;;10.17;7.00;;;6.90;99.90;;;;;;4998426;28;20262;-86
2022/04/04 11:03:28;;;;;;;9.33;6.97;;;6.90;99.90;;;;;;5002256;28;20231;-87
2022/04/04 11:09:12;;;;;;;9.90;7.23;;;6.90;99.90;;;;;;5000743;28;20213;-87
2022/04/04 11:12:11;;;;;;;9.80;7.60;;;7.00;99.90;;;;;;5001231;28;20715;-88
2022/04/04 11:14:42;;;;;;;8.20;6.67;;;7.10;99.90;;;;;;4999045;28;20341;-86
2022/04/04 11:17:09;;;;;;;9.03;6.53;;;7.20;99.90;;;;;;5003112;28;20210;-89
2022/04/04 11:20:31;;;;;;;8.07;6.23;;;7.20;99.90;;;;;;5002689;28;20687;-86
2022/04/04 11:23:02;;;;;;;9.07;6.50;;;7.10;99.90;;;;;;5003626;28;20307;-85
2022/04/04 11:25:34;;;;;;;7.73;6.03;;;7.10;99.90;;;;;;5006298;28;20573;-84
2022/04/04 11:28:02;;;;;;;8.27;6.27;;;7.10;99.90;;;;;;5014478;28;20277;-87
2022/04/04 11:30:29;;;;;;;11.13;6.53;;;7.10;99.90;;;;;;5012486;28;20262;-87
2022/04/04 11:32:59;;;;;;;10.63;6.73;;;7.20;99.90;;;;;;5002805;28;20222;-87
2022/04/04 11:35:31;;;;;;;9.73;6.70;;;7.30;99.90;;;;;;5007056;28;20205;-86
2022/04/04 11:38:02;;;;;;;8.93;6.87;;;7.40;99.90;;;;;;5010948;28;21259;-82
2022/04/04 11:40:37;;;;;;;10.13;6.97;;;7.50;99.90;;;;;;5003278;28;20218;-85
2022/04/04 11:43:15;;;;;;;9.47;6.73;;;7.40;99.90;;;;;;4997774;28;20224;-84
2022/04/04 11:45:43;;;;;;;9.87;6.93;;;7.50;99.90;;;;;;4997302;28;20216;-85
2022/04/04 11:48:14;;;;;;;11.30;6.93;;;7.40;99.90;;;;;;4999715;28;20208;-85
2022/04/04 11:50:42;;;;;;;12.40;7.80;;;7.30;99.90;;;;;;4996871;28;20617;-85
2022/04/04 11:53:14;;;;;;;10.90;7.47;;;7.40;99.90;;;;;;4998333;28;20224;-84
2022/04/04 11:55:44;;;;;;;9.57;7.50;;;7.40;99.90;;;;;;5006128;28;20207;-86
2022/04/04 11:58:20;;;;;;;8.93;6.77;;;7.30;99.90;;;;;;5006715;28;20754;-85
2022/04/04 12:00:55;;;;;;;8.90;6.90;;;7.50;99.90;;;;;;5001319;28;20205;-86
2022/04/04 12:03:27;;;;;;;12.43;7.53;;;7.30;99.90;;;;;;5005315;28;20216;-87
2022/04/04 12:05:55;;;;;;;9.53;6.67;;;7.30;99.90;;;;;;5003476;28;20219;-87
2022/04/04 12:08:23;;;;;;;10.07;6.93;;;7.30;99.90;;;;;;5006101;28;20767;-87
2022/04/04 12:10:50;;;;;;;9.03;6.53;;;7.20;99.90;;;;;;5010634;28;20207;-88
2022/04/04 12:13:21;;;;;;;9.53;7.30;;;7.30;99.90;;;;;;5009704;28;20228;-87
2022/04/04 12:15:54;;;;;;;9.10;6.23;;;7.20;99.90;;;;;;5012556;28;20346;-87
2022/04/04 12:18:23;;;;;;;9.90;6.40;;;7.20;99.90;;;;;;5013816;28;20299;-90
2022/04/04 12:20:51;;;;;;;7.67;6.17;;;7.30;99.90;;;;;;5003849;28;20235;-87
2022/04/04 12:26:22;;;;;;;8.90;6.20;;;7.40;99.90;;;;;;5004092;28;20240;-86
2022/04/04 12:28:49;;;;;;;8.10;5.83;;;7.30;99.90;;;;;;5003992;28;20205;-85
2022/04/04 12:31:21;;;;;;;6.70;5.40;;;7.40;99.90;;;;;;5003795;28;20724;-85
2022/04/04 12:34:07;;;;;;;8.93;5.87;;;7.50;99.90;;;;;;5004070;28;20277;-88
2022/04/04 12:36:38;;;;;;;8.57;5.27;;;7.50;99.90;;;;;;5005076;28;20327;-86
2022/04/04 12:39:09;;;;;;;7.30;5.70;;;7.50;99.90;;;;;;5008121;28;20746;-88
2022/04/04 12:41:45;;;;;;;6.23;5.17;;;7.50;99.90;;;;;;4992164;28;20545;-89
2022/04/04 12:44:20;;;;;;;7.57;4.50;;;7.60;99.90;;;;;;5000709;28;20281;-84
2022/04/04 12:46:47;;;;;;;5.10;4.53;;;7.60;99.90;;;;;;5006877;28;20205;-84
2022/04/04 12:49:17;;;;;;;5.20;4.50;;;7.60;99.90;;;;;;5002469;28;20213;-82
2022/04/04 12:52:00;;;;;;;5.13;4.03;;;7.60;99.90;;;;;;5007089;28;20798;-85
2022/04/04 12:54:32;;;;;;;4.60;4.07;;;7.60;99.90;;;;;;5007539;28;20213;-84
2022/04/04 12:57:03;;;;;;;5.50;4.70;;;7.60;99.90;;;;;;5006976;28;20239;-84
2022/04/04 12:59:50;;;;;;;5.37;4.00;;;7.60;99.90;;;;;;4998504;28;20210;-85
2022/04/04 13:02:17;;;;;;;6.00;4.43;;;7.70;99.90;;;;;;4999642;28;20213;-83
2022/04/04 13:04:44;;;;;;;6.37;4.47;;;7.70;99.90;;;;;;5007347;28;20601;-81
2022/04/04 13:07:19;;;;;;;4.10;3.70;;;7.80;99.90;;;;;;5005312;28;20659;-83
2022/04/04 13:09:52;;;;;;;5.70;4.37;;;7.90;99.90;;;;;;5000594;28;20202;-85
2022/04/04 13:12:30;;;;;;;4.53;3.80;;;7.90;99.90;;;;;;5005949;28;20209;-85
2022/04/04 13:14:58;;;;;;;6.70;4.07;;;8.00;99.90;;;;;;5017946;28;20537;-83
2022/04/04 13:17:42;;;;;;;5.40;3.73;;;8.00;99.90;;;;;;5003335;28;20589;-83